createdAt,value
2023-05-04T00:00:06.250Z,4.95
2023-05-04T00:02:03.692Z,4.95
2023-05-04T00:02:33.064Z,5.07
2023-05-04T00:04:59.662Z,5.38
2023-05-04T00:07:03.676Z,5.38
2023-05-04T00:07:26.286Z,5.10
2023-05-04T00:09:52.668Z,4.68
2023-05-04T00:12:03.659Z,4.68
2023-05-04T00:12:19.085Z,5.28
2023-05-04T00:14:45.484Z,5.38
2023-05-04T00:17:03.621Z,5.38
2023-05-04T00:17:13.969Z,4.95
2023-05-04T00:19:42.281Z,4.60
2023-05-04T00:22:03.635Z,4.60
2023-05-04T00:22:09.104Z,5.10
2023-05-04T00:24:35.633Z,5.20
2023-05-04T00:27:02.438Z,4.80
2023-05-04T00:27:03.629Z,4.80
2023-05-04T00:29:29.237Z,5.20
2023-05-04T00:31:56.162Z,4.90
2023-05-04T00:32:03.810Z,4.90
2023-05-04T00:34:22.900Z,5.32
2023-05-04T00:36:49.615Z,4.70
2023-05-04T00:37:03.660Z,4.70
2023-05-04T00:39:16.346Z,5.32
2023-05-04T00:41:42.726Z,5.32
2023-05-04T00:42:03.658Z,5.32
2023-05-04T00:44:09.273Z,4.50
2023-05-04T00:46:36.929Z,4.47
2023-05-04T00:47:03.714Z,4.47
2023-05-04T00:49:03.901Z,4.70
2023-05-04T00:51:30.780Z,5.38
2023-05-04T00:52:03.660Z,5.38
2023-05-04T00:53:58.153Z,5.05
2023-05-04T00:56:25.237Z,4.60
2023-05-04T00:57:03.653Z,4.60
2023-05-04T00:58:54.366Z,5.22
2023-05-04T01:01:22.263Z,7.45
2023-05-04T01:02:03.645Z,7.45
2023-05-04T01:03:53.729Z,4.95
2023-05-04T01:06:45.266Z,4.95
2023-05-04T01:07:03.690Z,4.95
2023-05-04T01:09:22.492Z,4.82
2023-05-04T01:11:58.151Z,5.47
2023-05-04T01:12:03.669Z,5.47
2023-05-04T01:14:25.500Z,5.82
2023-05-04T01:16:57.884Z,5.40
2023-05-04T01:17:03.817Z,5.40
2023-05-04T01:19:24.934Z,5.00
2023-05-04T01:21:51.318Z,4.32
2023-05-04T01:22:03.640Z,4.32
2023-05-04T01:24:17.756Z,4.95
2023-05-04T01:26:46.938Z,5.57
2023-05-04T01:27:03.676Z,5.57
2023-05-04T01:29:19.443Z,6.43
2023-05-04T01:31:46.717Z,4.82
2023-05-04T01:32:03.840Z,4.82
2023-05-04T01:34:14.301Z,4.95
2023-05-04T01:36:41.679Z,5.20
2023-05-04T01:37:03.660Z,5.20
2023-05-04T01:39:08.470Z,5.78
2023-05-04T01:41:36.098Z,5.38
2023-05-04T01:42:03.688Z,5.38
2023-05-04T01:44:03.773Z,4.70
2023-05-04T01:46:30.313Z,4.75
2023-05-04T01:47:03.691Z,4.75
2023-05-04T01:48:56.843Z,5.15
2023-05-04T01:51:23.211Z,8.48
2023-05-04T01:52:03.743Z,8.48
2023-05-04T01:53:49.599Z,4.70
2023-05-04T01:56:15.962Z,5.03
2023-05-04T01:57:03.680Z,5.03
2023-05-04T01:58:42.341Z,5.10
2023-05-04T02:01:09.288Z,4.70
2023-05-04T02:02:03.820Z,4.70
2023-05-04T02:03:35.789Z,4.50
2023-05-04T02:06:02.231Z,4.50
2023-05-04T02:07:03.660Z,4.50
2023-05-04T02:08:28.697Z,4.88
2023-05-04T02:10:55.020Z,4.85
2023-05-04T02:12:03.673Z,4.85
2023-05-04T02:13:22.145Z,7.07
2023-05-04T02:15:48.627Z,4.57
2023-05-04T02:17:03.676Z,4.57
2023-05-04T02:18:15.006Z,4.43
2023-05-04T02:20:41.386Z,5.30
2023-05-04T02:22:03.692Z,5.30
2023-05-04T02:23:07.759Z,4.70
2023-05-04T02:25:34.207Z,4.97
2023-05-04T02:27:03.649Z,4.97
2023-05-04T02:28:00.856Z,5.00
2023-05-04T02:30:27.233Z,4.60
2023-05-04T02:32:03.795Z,4.60
2023-05-04T02:32:53.647Z,4.72
2023-05-04T02:35:20.337Z,4.53
2023-05-04T02:37:05.840Z,4.53
2023-05-04T02:37:46.830Z,4.82
2023-05-04T02:40:13.560Z,4.85
2023-05-04T02:42:03.723Z,4.85
2023-05-04T02:42:39.945Z,3.85
2023-05-04T02:45:07.620Z,4.55
2023-05-04T02:47:03.686Z,4.55
2023-05-04T02:47:34.085Z,4.45
2023-05-04T02:50:00.746Z,4.75
2023-05-04T02:52:03.789Z,4.75
2023-05-04T02:52:27.121Z,4.10
2023-05-04T02:54:53.516Z,5.30
2023-05-04T02:57:03.713Z,5.30
2023-05-04T02:57:19.981Z,4.65
2023-05-04T02:59:46.667Z,4.68
2023-05-04T03:02:03.698Z,4.68
2023-05-04T03:02:13.176Z,4.65
2023-05-04T03:04:39.645Z,4.88
2023-05-04T03:07:03.664Z,4.88
2023-05-04T03:07:06.595Z,4.65
2023-05-04T03:09:32.960Z,4.80
2023-05-04T03:11:59.303Z,4.50
2023-05-04T03:12:03.681Z,4.50
2023-05-04T03:14:26.300Z,4.20
2023-05-04T03:16:52.762Z,4.45
2023-05-04T03:17:03.687Z,4.45
2023-05-04T03:19:19.900Z,4.78
2023-05-04T03:21:46.579Z,4.78
2023-05-04T03:22:03.658Z,4.78
2023-05-04T03:24:13.327Z,4.97
2023-05-04T03:26:39.848Z,4.95
2023-05-04T03:27:03.686Z,4.95
2023-05-04T03:29:06.277Z,5.07
2023-05-04T03:31:32.679Z,4.22
2023-05-04T03:32:03.835Z,4.22
2023-05-04T03:33:59.070Z,5.22
2023-05-04T03:36:25.574Z,4.43
2023-05-04T03:37:03.690Z,4.43
2023-05-04T03:38:51.971Z,4.22
2023-05-04T03:41:18.440Z,3.90
2023-05-04T03:42:03.724Z,3.90
2023-05-04T03:43:44.852Z,4.63
2023-05-04T03:46:11.516Z,4.85
2023-05-04T03:47:03.660Z,4.85
2023-05-04T03:48:37.946Z,4.50
2023-05-04T03:51:04.622Z,4.68
2023-05-04T03:52:03.729Z,4.68
2023-05-04T03:53:31.041Z,4.35
2023-05-04T03:55:57.450Z,5.05
2023-05-04T03:57:03.666Z,5.05
2023-05-04T03:58:23.757Z,4.00
2023-05-04T04:00:50.084Z,5.25
2023-05-04T04:02:03.733Z,5.25
2023-05-04T04:03:16.689Z,4.13
2023-05-04T04:05:43.418Z,4.05
2023-05-04T04:07:03.659Z,4.05
2023-05-04T04:08:12.373Z,4.32
2023-05-04T04:10:38.719Z,5.53
2023-05-04T04:12:03.699Z,5.53
2023-05-04T04:13:05.187Z,4.32
2023-05-04T04:15:31.581Z,4.00
2023-05-04T04:17:03.677Z,4.00
2023-05-04T04:17:58.093Z,7.47
2023-05-04T04:20:24.491Z,4.45
2023-05-04T04:22:03.659Z,4.45
2023-05-04T04:22:51.931Z,4.78
2023-05-04T04:25:18.284Z,5.28
2023-05-04T04:27:03.676Z,5.28
2023-05-04T04:27:44.621Z,4.35
2023-05-04T04:30:12.180Z,5.72
2023-05-04T04:32:03.968Z,5.72
2023-05-04T04:32:38.654Z,4.10
2023-05-04T04:35:06.755Z,11.10
2023-05-04T04:37:03.644Z,11.10
2023-05-04T04:37:33.090Z,4.63
2023-05-04T04:39:59.448Z,4.60
2023-05-04T04:42:03.666Z,4.60
2023-05-04T04:42:26.189Z,4.25
2023-05-04T04:44:54.728Z,6.95
2023-05-04T04:47:03.795Z,6.95
2023-05-04T04:47:21.089Z,4.45
2023-05-04T04:49:47.712Z,5.25
2023-05-04T04:52:03.716Z,5.25
2023-05-04T04:52:14.203Z,6.05
2023-05-04T04:54:40.704Z,5.20
2023-05-04T04:57:03.694Z,5.20
2023-05-04T04:57:10.254Z,5.88
2023-05-04T04:59:38.086Z,4.55
2023-05-04T05:02:04.488Z,5.03
2023-05-04T05:02:04.676Z,5.03
2023-05-04T05:04:31.216Z,5.30
2023-05-04T05:06:57.660Z,5.05
2023-05-04T05:07:03.665Z,5.05
2023-05-04T05:09:24.145Z,4.90
2023-05-04T05:11:50.686Z,5.00
2023-05-04T05:12:03.683Z,5.00
2023-05-04T05:14:17.017Z,4.97
2023-05-04T05:16:43.479Z,5.53
2023-05-04T05:17:03.732Z,5.53
2023-05-04T05:19:09.881Z,7.13
2023-05-04T05:21:36.329Z,5.53
2023-05-04T05:22:03.702Z,5.53
2023-05-04T05:24:02.907Z,6.05
2023-05-04T05:26:29.464Z,7.05
2023-05-04T05:27:03.681Z,7.05
2023-05-04T05:28:56.011Z,6.32
2023-05-04T05:31:22.450Z,7.18
2023-05-04T05:32:04.849Z,7.18
2023-05-04T05:33:48.910Z,7.03
2023-05-04T05:36:15.311Z,7.20
2023-05-04T05:37:03.668Z,7.20
2023-05-04T05:38:41.849Z,6.82
2023-05-04T05:41:09.729Z,7.22
2023-05-04T05:42:03.714Z,7.22
2023-05-04T05:43:38.413Z,8.07
2023-05-04T05:46:06.458Z,6.75
2023-05-04T05:47:03.706Z,6.75
2023-05-04T05:48:33.749Z,6.70
2023-05-04T05:51:00.266Z,6.57
2023-05-04T05:52:03.707Z,6.57
2023-05-04T05:53:26.865Z,6.57
2023-05-04T05:55:53.265Z,7.03
2023-05-04T05:57:03.720Z,7.03
2023-05-04T05:58:19.631Z,6.22
2023-05-04T06:00:46.295Z,5.95
2023-05-04T06:02:03.690Z,5.95
2023-05-04T06:03:12.746Z,9.35
2023-05-04T06:05:39.178Z,6.10
2023-05-04T06:07:03.680Z,6.10
2023-05-04T06:08:05.637Z,7.03
2023-05-04T06:10:32.128Z,6.47
2023-05-04T06:12:03.722Z,6.47
2023-05-04T06:12:58.549Z,8.00
2023-05-04T06:15:24.932Z,6.50
2023-05-04T06:17:03.695Z,6.50
2023-05-04T06:17:51.420Z,6.45
2023-05-04T06:20:18.079Z,6.60
2023-05-04T06:22:03.700Z,6.60
2023-05-04T06:22:44.491Z,7.97
2023-05-04T06:25:11.508Z,7.55
2023-05-04T06:27:03.715Z,7.55
2023-05-04T06:27:37.891Z,8.88
2023-05-04T06:30:05.259Z,6.35
2023-05-04T06:32:03.779Z,6.35
2023-05-04T06:32:32.136Z,6.20
2023-05-04T06:34:59.433Z,6.47
2023-05-04T06:37:03.724Z,6.47
2023-05-04T06:37:26.674Z,6.88
2023-05-04T06:39:53.124Z,6.72
2023-05-04T06:42:03.719Z,6.72
2023-05-04T06:42:19.494Z,6.65
2023-05-04T06:44:45.951Z,7.40
2023-05-04T06:47:03.698Z,7.40
2023-05-04T06:47:12.482Z,5.63
2023-05-04T06:49:38.836Z,6.13
2023-05-04T06:52:03.688Z,6.13
2023-05-04T06:52:05.438Z,5.88
2023-05-04T06:54:32.463Z,6.72
2023-05-04T06:56:58.852Z,6.03
2023-05-04T06:57:03.855Z,6.03
2023-05-04T06:59:25.354Z,5.95
2023-05-04T07:01:51.746Z,6.18
2023-05-04T07:02:03.713Z,6.18
2023-05-04T07:04:21.634Z,10.15
2023-05-04T07:06:48.157Z,7.28
2023-05-04T07:07:03.735Z,7.28
2023-05-04T07:09:17.832Z,6.57
2023-05-04T07:11:44.269Z,6.28
2023-05-04T07:12:03.707Z,6.28
2023-05-04T07:14:11.391Z,5.95
2023-05-04T07:16:38.229Z,6.35
2023-05-04T07:17:03.708Z,6.35
2023-05-04T07:19:04.615Z,5.70
2023-05-04T07:21:31.478Z,8.05
2023-05-04T07:22:03.693Z,8.05
2023-05-04T07:23:57.864Z,7.47
2023-05-04T07:26:24.275Z,5.60
2023-05-04T07:27:03.690Z,5.60
2023-05-04T07:28:50.641Z,6.10
2023-05-04T07:31:17.115Z,6.07
2023-05-04T07:32:03.723Z,6.07
2023-05-04T07:33:43.578Z,6.07
2023-05-04T07:36:10.049Z,5.80
2023-05-04T07:37:03.753Z,5.80
2023-05-04T07:38:36.965Z,7.25
2023-05-04T07:41:03.402Z,6.00
2023-05-04T07:42:03.753Z,6.00
2023-05-04T07:43:29.892Z,5.90
2023-05-04T07:45:56.546Z,6.68
2023-05-04T07:47:03.686Z,6.68
2023-05-04T07:48:24.707Z,5.90
2023-05-04T07:50:53.689Z,6.05
2023-05-04T07:52:03.722Z,6.05
2023-05-04T07:53:20.804Z,6.38
2023-05-04T07:55:47.888Z,6.40
2023-05-04T07:57:03.737Z,6.40
2023-05-04T07:58:15.447Z,5.93
2023-05-04T08:00:41.908Z,6.80
2023-05-04T08:02:03.785Z,6.80
2023-05-04T08:03:08.424Z,5.80
2023-05-04T08:05:34.800Z,6.15
2023-05-04T08:07:03.740Z,6.15
2023-05-04T08:08:01.284Z,7.97
2023-05-04T08:10:29.086Z,6.20
2023-05-04T08:12:03.720Z,6.20
2023-05-04T08:12:55.577Z,5.93
2023-05-04T08:15:22.202Z,6.25
2023-05-04T08:17:03.700Z,6.25
2023-05-04T08:17:48.650Z,5.95
2023-05-04T08:20:15.227Z,10.13
2023-05-04T08:22:03.766Z,10.13
2023-05-04T08:22:41.604Z,6.90
2023-05-04T08:25:09.394Z,6.30
2023-05-04T08:27:07.861Z,6.30
2023-05-04T08:27:35.754Z,5.97
2023-05-04T08:30:02.118Z,12.25
2023-05-04T08:32:03.849Z,12.25
2023-05-04T08:32:29.974Z,6.20
2023-05-04T08:34:57.380Z,9.93
2023-05-04T08:37:03.770Z,9.93
2023-05-04T08:37:23.760Z,6.28
2023-05-04T08:39:50.762Z,6.60
2023-05-04T08:42:03.732Z,6.60
2023-05-04T08:42:31.166Z,8.00
2023-05-04T08:44:58.371Z,8.05
2023-05-04T08:47:03.739Z,8.05
2023-05-04T08:47:26.487Z,6.97
2023-05-04T08:49:57.000Z,7.20
2023-05-04T08:52:03.756Z,7.20
2023-05-04T08:52:24.691Z,6.88
2023-05-04T08:55:00.594Z,7.07
2023-05-04T08:57:03.735Z,7.07
2023-05-04T08:57:27.380Z,7.22
2023-05-04T08:59:55.471Z,8.30
2023-05-04T09:02:03.952Z,8.30
2023-05-04T09:02:24.078Z,7.05
2023-05-04T09:04:51.496Z,6.45
2023-05-04T09:07:03.721Z,6.45
2023-05-04T09:07:22.017Z,8.48
2023-05-04T09:09:50.880Z,7.00
2023-05-04T09:12:03.748Z,7.00
2023-05-04T09:12:18.089Z,7.63
2023-05-04T09:14:46.431Z,6.70
2023-05-04T09:17:03.847Z,6.70
2023-05-04T09:17:16.380Z,6.40
2023-05-04T09:19:45.923Z,7.63
2023-05-04T09:22:03.725Z,7.63
2023-05-04T09:22:17.234Z,6.57
2023-05-04T09:24:44.193Z,6.78
2023-05-04T09:27:03.733Z,6.78
2023-05-04T09:27:11.896Z,7.15
2023-05-04T09:29:40.418Z,7.25
2023-05-04T09:32:03.726Z,7.25
2023-05-04T09:32:12.250Z,6.82
2023-05-04T09:34:53.289Z,7.95
2023-05-04T09:37:03.853Z,7.95
2023-05-04T09:37:21.268Z,7.55
2023-05-04T09:40:00.137Z,7.55
2023-05-04T09:42:03.724Z,7.55
2023-05-04T09:42:26.967Z,7.20
2023-05-04T09:45:01.747Z,7.63
2023-05-04T09:47:03.733Z,7.63
2023-05-04T09:47:40.006Z,7.30
2023-05-04T09:50:20.338Z,7.85
2023-05-04T09:52:03.760Z,7.85
2023-05-04T09:52:48.718Z,11.07
2023-05-04T09:55:17.651Z,7.72
2023-05-04T09:57:03.755Z,7.72
2023-05-04T09:57:45.585Z,7.78
2023-05-04T10:00:14.118Z,8.18
2023-05-04T10:02:14.431Z,8.18
2023-05-04T10:02:40.711Z,7.63
2023-05-04T10:05:09.164Z,8.38
2023-05-04T10:07:03.724Z,8.38
2023-05-04T10:07:36.212Z,7.30
2023-05-04T10:10:03.539Z,7.22
2023-05-04T10:12:03.730Z,7.22
2023-05-04T10:12:30.001Z,6.88
2023-05-04T10:14:56.891Z,7.53
2023-05-04T10:17:03.722Z,7.53
2023-05-04T10:17:51.246Z,10.75
2023-05-04T10:20:29.944Z,7.25
2023-05-04T10:22:03.749Z,7.25
2023-05-04T10:23:12.819Z,6.88
2023-05-04T10:25:57.198Z,7.88
2023-05-04T10:27:03.764Z,7.88
2023-05-04T10:28:40.318Z,7.40
2023-05-04T10:31:09.241Z,7.35
2023-05-04T10:32:03.845Z,7.35
2023-05-04T10:33:40.484Z,9.60
2023-05-04T10:36:07.920Z,7.05
2023-05-04T10:37:03.840Z,7.05
2023-05-04T10:38:35.721Z,7.28
2023-05-04T10:41:14.414Z,8.73
2023-05-04T10:42:03.788Z,8.73
2023-05-04T10:43:42.402Z,7.18
2023-05-04T10:46:22.645Z,7.32
2023-05-04T10:47:03.739Z,7.32
2023-05-04T10:48:50.216Z,7.30
2023-05-04T10:51:32.667Z,7.05
2023-05-04T10:52:03.745Z,7.05
2023-05-04T10:54:02.231Z,7.03
2023-05-04T10:56:28.668Z,7.55
2023-05-04T10:57:03.802Z,7.55
2023-05-04T10:58:55.337Z,7.60
2023-05-04T11:01:24.292Z,6.93
2023-05-04T11:02:03.836Z,6.93
2023-05-04T11:03:52.416Z,7.65
2023-05-04T11:06:24.060Z,7.40
2023-05-04T11:07:03.743Z,7.40
2023-05-04T11:09:02.266Z,6.95
2023-05-04T11:11:28.921Z,6.60
2023-05-04T11:12:03.824Z,6.60
2023-05-04T11:13:56.632Z,6.85
2023-05-04T11:16:24.552Z,7.32
2023-05-04T11:17:05.372Z,7.32
2023-05-04T11:18:53.573Z,6.93
2023-05-04T11:21:27.097Z,8.55
2023-05-04T11:22:03.753Z,8.55
2023-05-04T11:24:00.390Z,6.63
2023-05-04T11:26:28.442Z,6.22
2023-05-04T11:27:03.722Z,6.22
2023-05-04T11:28:54.889Z,6.50
2023-05-04T11:31:21.486Z,6.57
2023-05-04T11:32:03.764Z,6.57
2023-05-04T11:33:48.601Z,6.85
2023-05-04T11:36:17.691Z,6.55
2023-05-04T11:37:03.860Z,6.55
2023-05-04T11:38:44.167Z,6.75
2023-05-04T11:41:12.562Z,6.78
2023-05-04T11:42:03.774Z,6.78
2023-05-04T11:43:42.222Z,6.22
2023-05-04T11:46:09.734Z,6.55
2023-05-04T11:47:03.761Z,6.55
2023-05-04T11:48:36.518Z,6.50
2023-05-04T11:51:04.298Z,6.55
2023-05-04T11:52:03.794Z,6.55
2023-05-04T11:53:41.106Z,6.40
2023-05-04T11:56:10.743Z,6.53
2023-05-04T11:57:03.768Z,6.53
2023-05-04T11:58:37.449Z,6.75
2023-05-04T12:01:04.793Z,6.47
2023-05-04T12:02:03.835Z,6.47
2023-05-04T12:03:50.993Z,6.50
2023-05-04T12:06:19.759Z,6.05
2023-05-04T12:07:03.751Z,6.05
2023-05-04T12:08:46.106Z,6.68
2023-05-04T12:11:25.330Z,6.72
2023-05-04T12:12:03.787Z,6.72
2023-05-04T12:14:11.872Z,6.65
2023-05-04T12:16:38.749Z,6.75
2023-05-04T12:17:03.759Z,6.75
2023-05-04T12:19:07.655Z,6.97
2023-05-04T12:21:35.205Z,6.72
2023-05-04T12:22:03.781Z,6.72
2023-05-04T12:24:03.288Z,12.07
2023-05-04T12:26:29.899Z,6.20
2023-05-04T12:27:03.760Z,6.20
2023-05-04T12:28:56.460Z,6.38
2023-05-04T12:31:25.406Z,6.80
2023-05-04T12:32:03.860Z,6.80
2023-05-04T12:33:52.217Z,11.90
2023-05-04T12:36:18.810Z,6.85
2023-05-04T12:37:03.777Z,6.85
2023-05-04T12:38:46.053Z,6.95
2023-05-04T12:41:12.614Z,6.35
2023-05-04T12:42:03.756Z,6.35
2023-05-04T12:43:39.066Z,6.20
2023-05-04T12:46:05.796Z,6.47
2023-05-04T12:47:03.757Z,6.47
2023-05-04T12:48:32.904Z,6.50
2023-05-04T12:51:00.869Z,6.30
2023-05-04T12:52:03.769Z,6.30
2023-05-04T12:53:29.846Z,6.38
2023-05-04T12:55:56.414Z,6.72
2023-05-04T12:57:03.794Z,6.72
2023-05-04T12:58:22.783Z,6.40
2023-05-04T13:00:49.475Z,6.72
2023-05-04T13:02:03.843Z,6.72
2023-05-04T13:03:17.886Z,6.47
2023-05-04T13:05:46.260Z,6.78
2023-05-04T13:07:03.800Z,6.78
2023-05-04T13:08:12.909Z,6.70
2023-05-04T13:10:41.969Z,6.60
2023-05-04T13:12:03.767Z,6.60
2023-05-04T13:13:08.520Z,6.43
2023-05-04T13:15:34.978Z,6.50
2023-05-04T13:17:03.769Z,6.50
2023-05-04T13:18:01.692Z,6.13
2023-05-04T13:20:28.134Z,6.35
2023-05-04T13:22:03.780Z,6.35
2023-05-04T13:22:58.221Z,6.72
2023-05-04T13:25:25.590Z,6.93
2023-05-04T13:27:03.781Z,6.93
2023-05-04T13:27:52.574Z,6.25
2023-05-04T13:30:20.510Z,6.30
2023-05-04T13:32:03.852Z,6.30
2023-05-04T13:32:46.947Z,6.50
2023-05-04T13:35:15.758Z,6.70
2023-05-04T13:37:03.874Z,6.70
2023-05-04T13:37:42.274Z,6.25
2023-05-04T13:40:09.445Z,7.05
2023-05-04T13:42:03.765Z,7.05
2023-05-04T13:42:37.322Z,6.65
2023-05-04T13:45:04.437Z,6.43
2023-05-04T13:47:03.888Z,6.43
2023-05-04T13:47:31.190Z,6.40
2023-05-04T13:49:57.916Z,7.05
2023-05-04T13:52:03.780Z,7.05
2023-05-04T13:52:24.399Z,6.28
2023-05-04T13:54:50.770Z,6.80
2023-05-04T13:57:03.762Z,6.80
2023-05-04T13:57:17.223Z,6.28
2023-05-04T13:59:54.634Z,6.65
2023-05-04T14:02:03.923Z,6.65
2023-05-04T14:02:25.072Z,6.35
2023-05-04T14:04:51.540Z,6.88
2023-05-04T14:07:03.785Z,6.88
2023-05-04T14:07:18.170Z,6.15
2023-05-04T14:09:44.614Z,6.45
2023-05-04T14:12:03.786Z,6.45
2023-05-04T14:12:11.036Z,6.68
2023-05-04T14:14:37.388Z,6.57
2023-05-04T14:17:04.095Z,6.45
2023-05-04T14:17:04.803Z,6.45
2023-05-04T14:19:30.510Z,6.53
2023-05-04T14:21:56.965Z,6.50
2023-05-04T14:22:03.763Z,6.50
2023-05-04T14:24:25.250Z,6.60
2023-05-04T14:26:51.792Z,6.90
2023-05-04T14:27:03.791Z,6.90
2023-05-04T14:29:18.185Z,6.63
2023-05-04T14:31:44.629Z,6.82
2023-05-04T14:32:03.941Z,6.82
2023-05-04T14:34:12.327Z,6.40
2023-05-04T14:36:38.674Z,6.97
2023-05-04T14:37:03.808Z,6.97
2023-05-04T14:39:05.149Z,6.10
2023-05-04T14:41:33.678Z,6.90
2023-05-04T14:42:06.216Z,6.90
2023-05-04T14:44:00.441Z,6.60
2023-05-04T14:46:29.322Z,6.35
2023-05-04T14:47:05.477Z,6.35
2023-05-04T14:48:56.214Z,6.65
2023-05-04T14:51:23.868Z,6.78
2023-05-04T14:52:03.828Z,6.78
2023-05-04T14:53:50.406Z,6.35
2023-05-04T14:56:16.791Z,6.63
2023-05-04T14:57:03.764Z,6.63
2023-05-04T14:58:43.723Z,11.65
2023-05-04T15:01:10.270Z,7.10
2023-05-04T15:02:03.916Z,7.10
2023-05-04T15:03:38.724Z,6.88
2023-05-04T15:06:06.272Z,6.05
2023-05-04T15:07:03.793Z,6.05
2023-05-04T15:08:32.733Z,6.50
2023-05-04T15:10:59.275Z,6.70
2023-05-04T15:12:03.799Z,6.70
2023-05-04T15:13:26.255Z,6.40
2023-05-04T15:15:52.978Z,6.10
2023-05-04T15:17:03.797Z,6.10
2023-05-04T15:18:21.119Z,6.47
2023-05-04T15:20:47.550Z,7.03
2023-05-04T15:22:03.834Z,7.03
2023-05-04T15:23:14.112Z,6.85
2023-05-04T15:25:41.066Z,6.28
2023-05-04T15:27:03.857Z,6.28
2023-05-04T15:28:11.168Z,6.25
2023-05-04T15:30:41.558Z,6.10
2023-05-04T15:32:03.831Z,6.10
2023-05-04T15:33:08.467Z,6.90
2023-05-04T15:35:36.363Z,6.60
2023-05-04T15:37:03.782Z,6.60
2023-05-04T15:38:03.408Z,6.30
2023-05-04T15:40:29.941Z,6.35
2023-05-04T15:42:03.893Z,6.35
2023-05-04T15:42:56.453Z,6.57
2023-05-04T15:45:23.053Z,6.45
2023-05-04T15:47:03.917Z,6.45
2023-05-04T15:47:49.528Z,6.47
2023-05-04T15:50:15.949Z,6.50
2023-05-04T15:52:03.810Z,6.50
2023-05-04T15:52:42.426Z,5.90
2023-05-04T15:55:24.401Z,6.28
2023-05-04T15:57:03.799Z,6.28
2023-05-04T15:57:53.736Z,6.75
2023-05-04T16:00:21.191Z,6.45
2023-05-04T16:02:03.915Z,6.45
2023-05-04T16:02:48.016Z,5.80
2023-05-04T16:05:14.565Z,6.57
2023-05-04T16:07:03.816Z,6.57
2023-05-04T16:07:40.950Z,10.77
2023-05-04T16:10:08.398Z,6.30
2023-05-04T16:12:03.810Z,6.30
2023-05-04T16:12:35.172Z,6.10
2023-05-04T16:15:01.691Z,6.80
2023-05-04T16:17:03.911Z,6.80
2023-05-04T16:17:29.033Z,5.93
2023-05-04T16:19:55.898Z,6.10
2023-05-04T16:22:03.818Z,6.10
2023-05-04T16:22:22.257Z,6.30
2023-05-04T16:24:48.796Z,6.30
2023-05-04T16:27:03.799Z,6.30
2023-05-04T16:27:15.330Z,5.85
2023-05-04T16:29:41.720Z,6.20
2023-05-04T16:32:03.906Z,6.20
2023-05-04T16:32:08.378Z,6.50
2023-05-04T16:34:37.460Z,5.82
2023-05-04T16:37:04.003Z,6.32
2023-05-04T16:37:04.160Z,6.32
2023-05-04T16:39:31.306Z,6.65
2023-05-04T16:41:58.546Z,9.25
2023-05-04T16:42:03.792Z,9.25
2023-05-04T16:44:27.406Z,6.18
2023-05-04T16:46:54.418Z,6.30
2023-05-04T16:47:03.792Z,6.30
2023-05-04T16:49:24.154Z,6.63
2023-05-04T16:51:56.044Z,6.50
2023-05-04T16:52:03.854Z,6.50
2023-05-04T16:54:24.269Z,6.32
2023-05-04T16:56:52.039Z,6.40
2023-05-04T16:57:03.846Z,6.40
2023-05-04T16:59:18.592Z,6.07
2023-05-04T17:01:47.525Z,6.93
2023-05-04T17:02:03.945Z,6.93
2023-05-04T17:04:13.984Z,6.72
2023-05-04T17:06:40.486Z,6.55
2023-05-04T17:07:03.785Z,6.55
2023-05-04T17:09:07.121Z,6.75
2023-05-04T17:11:34.568Z,6.30
2023-05-04T17:12:03.933Z,6.30
2023-05-04T17:14:01.356Z,6.57
2023-05-04T17:16:27.724Z,6.55
2023-05-04T17:17:03.805Z,6.55
2023-05-04T17:18:54.171Z,6.20
2023-05-04T17:21:20.754Z,5.88
2023-05-04T17:22:03.804Z,5.88
2023-05-04T17:23:47.247Z,6.60
2023-05-04T17:26:13.741Z,6.10
2023-05-04T17:27:03.835Z,6.10
2023-05-04T17:28:42.306Z,6.15
2023-05-04T17:31:24.235Z,6.38
2023-05-04T17:32:03.880Z,6.38
2023-05-04T17:33:50.806Z,6.70
2023-05-04T17:36:17.251Z,6.45
2023-05-04T17:37:03.852Z,6.45
2023-05-04T17:38:43.643Z,6.88
2023-05-04T17:41:10.361Z,6.10
2023-05-04T17:42:04.888Z,6.10
2023-05-04T17:43:37.124Z,6.10
2023-05-04T17:46:03.704Z,6.30
2023-05-04T17:47:05.558Z,6.30
2023-05-04T17:48:32.811Z,6.20
2023-05-04T17:50:59.992Z,6.38
2023-05-04T17:52:03.853Z,6.38
2023-05-04T17:53:29.722Z,6.55
2023-05-04T17:55:56.239Z,6.45
2023-05-04T17:57:03.807Z,6.45
2023-05-04T17:58:22.766Z,6.85
2023-05-04T18:00:52.007Z,6.70
2023-05-04T18:02:03.959Z,6.70
2023-05-04T18:03:19.644Z,6.05
2023-05-04T18:05:46.508Z,6.78
2023-05-04T18:07:03.836Z,6.78
2023-05-04T18:08:13.443Z,6.45
2023-05-04T18:10:40.366Z,7.38
2023-05-04T18:12:03.838Z,7.38
2023-05-04T18:13:06.732Z,6.32
2023-05-04T18:15:33.373Z,8.57
2023-05-04T18:17:03.830Z,8.57
2023-05-04T18:17:59.822Z,6.47
2023-05-04T18:20:26.516Z,5.93
2023-05-04T18:22:03.831Z,5.93
2023-05-04T18:22:52.883Z,6.85
2023-05-04T18:25:19.207Z,6.47
2023-05-04T18:27:03.818Z,6.47
2023-05-04T18:27:45.681Z,6.68
2023-05-04T18:30:12.259Z,6.80
2023-05-04T18:32:03.927Z,6.80
2023-05-04T18:32:38.927Z,6.78
2023-05-04T18:35:05.722Z,6.38
2023-05-04T18:37:03.824Z,6.38
2023-05-04T18:37:32.345Z,6.72
2023-05-04T18:39:59.254Z,6.45
2023-05-04T18:42:03.817Z,6.45
2023-05-04T18:42:26.012Z,6.32
2023-05-04T18:44:53.200Z,6.72
2023-05-04T18:47:03.925Z,6.72
2023-05-04T18:47:19.992Z,6.30
2023-05-04T18:49:51.108Z,6.50
2023-05-04T18:52:03.833Z,6.50
2023-05-04T18:52:18.028Z,6.78
2023-05-04T18:54:44.345Z,6.50
2023-05-04T18:57:03.833Z,6.50
2023-05-04T18:57:11.093Z,6.60
2023-05-04T18:59:37.728Z,6.70
2023-05-04T19:02:04.222Z,6.30
2023-05-04T19:02:04.902Z,6.30
2023-05-04T19:04:30.638Z,6.85
2023-05-04T19:07:00.031Z,7.00
2023-05-04T19:07:03.813Z,7.00
2023-05-04T19:09:26.364Z,7.45
2023-05-04T19:11:52.745Z,6.82
2023-05-04T19:12:03.851Z,6.82
2023-05-04T19:14:19.372Z,6.78
2023-05-04T19:16:45.732Z,6.50
2023-05-04T19:17:03.844Z,6.50
2023-05-04T19:19:12.122Z,6.20
2023-05-04T19:21:39.399Z,6.65
2023-05-04T19:22:03.841Z,6.65
2023-05-04T19:24:06.866Z,10.68
2023-05-04T19:26:33.467Z,6.65
2023-05-04T19:27:03.824Z,6.65
2023-05-04T19:28:59.784Z,6.85
2023-05-04T19:31:26.319Z,6.97
2023-05-04T19:32:15.872Z,6.97
2023-05-04T19:33:53.314Z,7.15
2023-05-04T19:36:19.799Z,6.75
2023-05-04T19:37:03.828Z,6.75
2023-05-04T19:38:46.178Z,6.78
2023-05-04T19:41:13.902Z,6.75
2023-05-04T19:42:03.813Z,6.75
2023-05-04T19:43:40.923Z,6.75
2023-05-04T19:46:08.021Z,6.55
2023-05-04T19:47:04.004Z,6.55
2023-05-04T19:48:34.460Z,6.80
2023-05-04T19:51:01.098Z,7.57
2023-05-04T19:52:03.846Z,7.57
2023-05-04T19:53:27.556Z,6.38
2023-05-04T19:55:54.024Z,9.13
2023-05-04T19:57:03.903Z,9.13
2023-05-04T19:58:21.937Z,8.10
2023-05-04T20:00:48.758Z,6.60
2023-05-04T20:02:03.906Z,6.60
2023-05-04T20:03:17.007Z,7.18
2023-05-04T20:05:43.619Z,6.78
2023-05-04T20:07:03.838Z,6.78
2023-05-04T20:08:11.097Z,6.97
2023-05-04T20:10:37.556Z,9.32
2023-05-04T20:12:03.824Z,9.32
2023-05-04T20:13:04.119Z,6.60
2023-05-04T20:15:30.595Z,6.95
2023-05-04T20:17:03.916Z,6.95
2023-05-04T20:17:57.766Z,6.90
2023-05-04T20:20:24.295Z,7.03
2023-05-04T20:22:03.869Z,7.03
2023-05-04T20:22:52.190Z,6.78
2023-05-04T20:25:19.805Z,7.20
2023-05-04T20:27:03.887Z,7.20
2023-05-04T20:27:48.574Z,6.57
2023-05-04T20:30:15.406Z,6.57
2023-05-04T20:32:03.842Z,6.57
2023-05-04T20:32:42.628Z,6.90
2023-05-04T20:35:09.578Z,6.70
2023-05-04T20:37:03.856Z,6.70
2023-05-04T20:37:36.213Z,6.30
2023-05-04T20:40:02.773Z,6.57
2023-05-04T20:42:03.835Z,6.57
2023-05-04T20:42:29.358Z,7.38
2023-05-04T20:44:55.810Z,6.95
2023-05-04T20:47:03.814Z,6.95
2023-05-04T20:47:22.385Z,6.65
2023-05-04T20:49:48.889Z,6.85
2023-05-04T20:52:03.853Z,6.85
2023-05-04T20:52:15.267Z,7.07
2023-05-04T20:54:41.782Z,7.13
2023-05-04T20:57:03.954Z,7.13
2023-05-04T20:57:08.732Z,9.48
2023-05-04T20:59:35.121Z,10.05
2023-05-04T21:02:01.610Z,7.30
2023-05-04T21:02:03.988Z,7.30
2023-05-04T21:04:28.037Z,9.05
2023-05-04T21:06:54.425Z,6.95
2023-05-04T21:07:03.929Z,6.95
2023-05-04T21:09:21.529Z,6.80
2023-05-04T21:11:48.151Z,7.35
2023-05-04T21:12:04.097Z,7.35
2023-05-04T21:14:14.614Z,7.97
2023-05-04T21:16:41.230Z,9.60
2023-05-04T21:17:03.956Z,9.60
2023-05-04T21:19:08.376Z,6.68
2023-05-04T21:21:37.252Z,7.03
2023-05-04T21:22:04.056Z,7.03
2023-05-04T21:24:03.778Z,6.53
2023-05-04T21:26:32.979Z,6.90
2023-05-04T21:27:04.053Z,6.90
2023-05-04T21:28:59.361Z,7.53
2023-05-04T21:31:25.734Z,7.07
2023-05-04T21:32:04.007Z,7.07
2023-05-04T21:33:52.640Z,7.22
2023-05-04T21:36:19.591Z,7.28
2023-05-04T21:37:03.991Z,7.28
2023-05-04T21:38:46.476Z,7.45
2023-05-04T21:41:14.165Z,7.22
2023-05-04T21:42:04.012Z,7.22
2023-05-04T21:43:41.566Z,7.13
2023-05-04T21:46:08.583Z,8.88
2023-05-04T21:47:04.067Z,8.88
2023-05-04T21:48:36.148Z,6.82
2023-05-04T21:51:02.965Z,7.07
2023-05-04T21:52:04.054Z,7.07
2023-05-04T21:53:35.798Z,7.63
2023-05-04T21:56:11.940Z,6.72